KAPS

Port of South Louisiana Executive Regional Airport

Reserve, Louisiana, USA
METAR KAPS 100615Z AUTO 01005KT 10SM OVC015 06/03 A3025 RMK AO2 T00630028
Observed Flight Rules
Dec-10 @ 06:15 UTC (27 minutes ago) Marginal Visual Flight Rules
Wind Visibility Clouds
10° at 5 knots 10 miles
  • Overcast at 1,500' AGL
Temperatures Readings
Current 6°C / 43°F
Dewpoint 3°C / 37°F
Humidity 81%
Altimeter 30.25" Hg
Pressure 1024 hPa
Elevation 2
METAR KAPS 100615Z AUTO 01005KT 10SM OVC015 06/03 A3025 RMK AO2 T00630028
Observed Flight Rules
Dec-10 @ 06:15 UTC
(27 minutes ago)
MVFR
Wind Visibility
10° at 5 knots 10 miles
Clouds
  • Overcast at 1,500' AGL
Temperature Dewpoint
6°C / 43°F 3°C / 37°F
Humidity Altimeter Pressure
81% 30.25" Hg 1024 hPa